UPS2334 KSDF-KMIA
Flight info
| Callsign | UPS2334 |
|---|---|
| Flight time | 1h 49m |
| Altitude | 37000 |
| Route | LOKRD1 BILET DCT NOTWO DCT HONID FROGZ4 |
| Aircraft | B744/H-SDE3FGHIM1M2RWXY/LB1 |
Departure
| Time | 2026-05-05 23:24 |
|---|---|
| Airport | Louisville Muhammad Ali International Airport (KSDF) |
Arrival
| Time | 2026-05-06 01:14 |
|---|---|
| Airport | Miami International Airport (KMIA) |
| Time | Latitude | Longitude | Altitude | Speed | Heading |
|---|---|---|---|---|---|
| 2026-05-05 22:56 | 38.17600 | -85.74025 | 514 ft | 0 kts | 201° |
| 2026-05-05 23:11 | 38.17604 | -85.74023 | 514 ft | 2 kts | 200° |
| 2026-05-05 23:11 | 38.17619 | -85.74016 | 514 ft | 2 kts | 200° |
| 2026-05-05 23:11 | 38.17634 | -85.74009 | 514 ft | 2 kts | 200° |
| 2026-05-05 23:11 | 38.17649 | -85.74002 | 514 ft | 2 kts | 200° |
| 2026-05-05 23:12 | 38.17662 | -85.73994 | 514 ft | 2 kts | 223° |
| 2026-05-05 23:12 | 38.17669 | -85.73981 | 514 ft | 2 kts | 257° |
| 2026-05-05 23:12 | 38.17670 | -85.73965 | 514 ft | 2 kts | 289° |
| 2026-05-05 23:12 | 38.17664 | -85.73946 | 514 ft | 2 kts | 291° |
| 2026-05-05 23:13 | 38.17658 | -85.73927 | 514 ft | 2 kts | 291° |
| 2026-05-05 23:13 | 38.17653 | -85.73912 | 514 ft | 0 kts | 291° |
| 2026-05-05 23:16 | 38.17654 | -85.73913 | 514 ft | 1 kts | 291° |
| 2026-05-05 23:16 | 38.17665 | -85.73949 | 514 ft | 9 kts | 291° |
| 2026-05-05 23:16 | 38.17697 | -85.74056 | 514 ft | 15 kts | 291° |
| 2026-05-05 23:16 | 38.17734 | -85.74177 | 514 ft | 14 kts | 291° |
| 2026-05-05 23:17 | 38.17753 | -85.74263 | 514 ft | 5 kts | 252° |
| 2026-05-05 23:17 | 38.17731 | -85.74285 | 514 ft | 5 kts | 173° |
| 2026-05-05 23:17 | 38.17699 | -85.74280 | 514 ft | 4 kts | 170° |
| 2026-05-05 23:17 | 38.17663 | -85.74269 | 514 ft | 8 kts | 166° |
| 2026-05-05 23:18 | 38.17579 | -85.74243 | 514 ft | 16 kts | 166° |
| 2026-05-05 23:18 | 38.17446 | -85.74200 | 514 ft | 23 kts | 165° |
| 2026-05-05 23:18 | 38.17292 | -85.74149 | 514 ft | 22 kts | 166° |
| 2026-05-05 23:18 | 38.17145 | -85.74103 | 514 ft | 21 kts | 166° |
| 2026-05-05 23:19 | 38.17004 | -85.74056 | 514 ft | 20 kts | 165° |
| 2026-05-05 23:19 | 38.16870 | -85.74010 | 514 ft | 19 kts | 165° |
| 2026-05-05 23:19 | 38.16743 | -85.73968 | 514 ft | 18 kts | 166° |
| 2026-05-05 23:19 | 38.16621 | -85.73930 | 514 ft | 18 kts | 166° |
| 2026-05-05 23:20 | 38.16506 | -85.73894 | 514 ft | 17 kts | 166° |
| 2026-05-05 23:20 | 38.16398 | -85.73853 | 514 ft | 16 kts | 163° |
| 2026-05-05 23:20 | 38.16296 | -85.73818 | 514 ft | 15 kts | 165° |
| 2026-05-05 23:20 | 38.16201 | -85.73786 | 514 ft | 14 kts | 165° |
| 2026-05-05 23:21 | 38.16111 | -85.73756 | 514 ft | 13 kts | 165° |
| 2026-05-05 23:21 | 38.16026 | -85.73728 | 514 ft | 12 kts | 165° |
| 2026-05-05 23:21 | 38.15943 | -85.73703 | 514 ft | 12 kts | 171° |
| 2026-05-05 23:21 | 38.15880 | -85.73753 | 514 ft | 12 kts | 253° |
| 2026-05-05 23:22 | 38.15864 | -85.73850 | 514 ft | 11 kts | 258° |
| 2026-05-05 23:22 | 38.15825 | -85.73923 | 514 ft | 11 kts | 179° |
| 2026-05-05 23:22 | 38.15761 | -85.73880 | 514 ft | 11 kts | 137° |
| 2026-05-05 23:22 | 38.15706 | -85.73821 | 514 ft | 10 kts | 140° |
| 2026-05-05 23:23 | 38.15640 | -85.73766 | 514 ft | 15 kts | 167° |
| 2026-05-05 23:23 | 38.15584 | -85.73830 | 514 ft | 12 kts | 300° |
| 2026-05-05 23:23 | 38.15660 | -85.73876 | 514 ft | 15 kts | 344° |
| 2026-05-05 23:23 | 38.15870 | -85.73947 | 514 ft | 62 kts | 345° |
| 2026-05-05 23:24 | 38.16544 | -85.74169 | 515 ft | 138 kts | 345° |
| 2026-05-05 23:24 | 38.17708 | -85.74556 | 588 ft | 199 kts | 346° |
| 2026-05-05 23:24 | 38.19076 | -85.74977 | 1431 ft | 204 kts | 345° |
| 2026-05-05 23:24 | 38.20472 | -85.75482 | 2279 ft | 210 kts | 335° |
| 2026-05-05 23:25 | 38.21780 | -85.76252 | 2994 ft | 206 kts | 328° |
| 2026-05-05 23:25 | 38.23068 | -85.77131 | 3477 ft | 212 kts | 321° |
| 2026-05-05 23:25 | 38.24301 | -85.78201 | 3773 ft | 224 kts | 316° |
| 2026-05-05 23:25 | 38.25612 | -85.79436 | 3930 ft | 244 kts | 317° |
| 2026-05-05 23:26 | 38.26919 | -85.80861 | 4218 ft | 249 kts | 304° |
| 2026-05-05 23:26 | 38.27595 | -85.82032 | 4523 ft | 247 kts | 294° |
| 2026-05-05 23:26 | 38.28265 | -85.84013 | 5120 ft | 241 kts | 281° |
| 2026-05-05 23:26 | 38.28568 | -85.86096 | 5771 ft | 239 kts | 268° |
| 2026-05-05 23:27 | 38.28298 | -85.88865 | 6629 ft | 237 kts | 249° |
| 2026-05-05 23:27 | 38.27834 | -85.90136 | 7204 ft | 232 kts | 238° |
| 2026-05-05 23:27 | 38.26810 | -85.91675 | 8038 ft | 227 kts | 223° |
| 2026-05-05 23:27 | 38.25549 | -85.92814 | 8809 ft | 224 kts | 216° |
| 2026-05-05 23:28 | 38.24216 | -85.93872 | 9377 ft | 230 kts | 217° |
| 2026-05-05 23:28 | 38.22789 | -85.94977 | 9611 ft | 250 kts | 209° |
| 2026-05-05 23:28 | 38.21071 | -85.95612 | 10125 ft | 264 kts | 194° |
| 2026-05-05 23:28 | 38.19185 | -85.95614 | 10711 ft | 278 kts | 180° |
| 2026-05-05 23:29 | 38.17239 | -85.95033 | 11105 ft | 298 kts | 171° |
| 2026-05-05 23:29 | 38.15211 | -85.94098 | 11321 ft | 320 kts | 166° |
| 2026-05-05 23:29 | 38.13077 | -85.93032 | 11560 ft | 339 kts | 166° |
| 2026-05-05 23:29 | 38.10841 | -85.91962 | 11752 ft | 360 kts | 165° |
| 2026-05-05 23:30 | 38.08583 | -85.90233 | 11835 ft | 397 kts | 146° |
| 2026-05-05 23:30 | 38.06730 | -85.87475 | 12082 ft | 426 kts | 127° |
| 2026-05-05 23:30 | 38.05469 | -85.83989 | 12713 ft | 440 kts | 113° |
| 2026-05-05 23:30 | 38.04676 | -85.80202 | 13481 ft | 446 kts | 106° |
| 2026-05-05 23:31 | 38.03945 | -85.76361 | 14239 ft | 449 kts | 109° |
| 2026-05-05 23:31 | 38.02759 | -85.72716 | 14923 ft | 447 kts | 124° |
| 2026-05-05 23:31 | 38.00850 | -85.69628 | 15444 ft | 445 kts | 139° |
| 2026-05-05 23:31 | 37.98653 | -85.66813 | 15973 ft | 450 kts | 144° |
| 2026-05-05 23:32 | 37.96190 | -85.64474 | 16618 ft | 447 kts | 153° |
| 2026-05-05 23:32 | 37.93455 | -85.62646 | 17326 ft | 445 kts | 158° |
| 2026-05-05 23:32 | 37.90726 | -85.60724 | 17993 ft | 451 kts | 155° |
| 2026-05-05 23:32 | 37.88023 | -85.58630 | 18444 ft | 462 kts | 153° |
| 2026-05-05 23:33 | 37.85273 | -85.56413 | 18827 ft | 472 kts | 152° |
| 2026-05-05 23:33 | 37.82480 | -85.54151 | 19438 ft | 476 kts | 152° |
| 2026-05-05 23:33 | 37.79683 | -85.51896 | 20094 ft | 478 kts | 152° |
| 2026-05-05 23:33 | 37.76873 | -85.49649 | 20867 ft | 475 kts | 153° |
| 2026-05-05 23:34 | 37.74082 | -85.47446 | 21694 ft | 473 kts | 153° |
| 2026-05-05 23:34 | 37.71273 | -85.45226 | 22212 ft | 478 kts | 153° |
| 2026-05-05 23:34 | 37.68432 | -85.42989 | 22620 ft | 485 kts | 153° |
| 2026-05-05 23:34 | 37.65540 | -85.40709 | 23102 ft | 489 kts | 153° |
| 2026-05-05 23:35 | 37.62681 | -85.38463 | 23637 ft | 493 kts | 154° |
| 2026-05-05 23:35 | 37.59752 | -85.36161 | 24165 ft | 496 kts | 153° |
| 2026-05-05 23:35 | 37.56687 | -85.34248 | 24645 ft | 489 kts | 166° |
| 2026-05-05 23:35 | 37.53424 | -85.33040 | 25041 ft | 490 kts | 172° |
| 2026-05-05 23:36 | 37.50087 | -85.32149 | 25560 ft | 487 kts | 176° |
| 2026-05-05 23:36 | 37.46738 | -85.31483 | 26083 ft | 488 kts | 179° |
| 2026-05-05 23:36 | 37.43350 | -85.30939 | 26411 ft | 493 kts | 180° |
| 2026-05-05 23:36 | 37.39910 | -85.30412 | 26614 ft | 501 kts | 180° |
| 2026-05-05 23:37 | 37.36428 | -85.29849 | 26888 ft | 508 kts | 180° |
| 2026-05-05 23:37 | 37.32904 | -85.29263 | 27186 ft | 512 kts | 180° |
| 2026-05-05 23:37 | 37.29418 | -85.28674 | 27628 ft | 513 kts | 180° |
| 2026-05-05 23:37 | 37.25879 | -85.28073 | 28155 ft | 512 kts | 180° |
| 2026-05-05 23:38 | 37.22349 | -85.27472 | 28533 ft | 515 kts | 180° |
| 2026-05-05 23:38 | 37.18783 | -85.26857 | 28850 ft | 518 kts | 180° |
| 2026-05-05 23:38 | 37.15209 | -85.26241 | 29303 ft | 517 kts | 181° |
| 2026-05-05 23:38 | 37.11639 | -85.25630 | 29737 ft | 517 kts | 181° |
| 2026-05-05 23:39 | 37.08074 | -85.25023 | 30154 ft | 517 kts | 181° |
| 2026-05-05 23:39 | 37.04504 | -85.24417 | 30459 ft | 519 kts | 181° |
| 2026-05-05 23:39 | 37.00917 | -85.23808 | 30734 ft | 522 kts | 181° |
| 2026-05-05 23:39 | 36.97310 | -85.23196 | 31054 ft | 523 kts | 181° |
| 2026-05-05 23:40 | 36.93703 | -85.22585 | 31452 ft | 522 kts | 181° |
| 2026-05-05 23:40 | 36.90102 | -85.21975 | 31808 ft | 523 kts | 181° |
| 2026-05-05 23:40 | 36.86490 | -85.21355 | 32148 ft | 524 kts | 181° |
| 2026-05-05 23:40 | 36.82932 | -85.20658 | 32477 ft | 525 kts | 180° |
| 2026-05-05 23:41 | 36.79332 | -85.19921 | 32834 ft | 524 kts | 180° |
| 2026-05-05 23:41 | 36.75724 | -85.19189 | 33125 ft | 525 kts | 180° |
| 2026-05-05 23:41 | 36.72112 | -85.18462 | 33413 ft | 525 kts | 180° |
| 2026-05-05 23:41 | 36.68516 | -85.17743 | 33838 ft | 521 kts | 180° |
| 2026-05-05 23:42 | 36.64940 | -85.17027 | 34156 ft | 521 kts | 180° |
| 2026-05-05 23:42 | 36.61345 | -85.16305 | 34392 ft | 522 kts | 180° |
| 2026-05-05 23:42 | 36.57769 | -85.15584 | 34796 ft | 518 kts | 180° |
| 2026-05-05 23:42 | 36.54225 | -85.14876 | 35087 ft | 517 kts | 181° |
| 2026-05-05 23:43 | 36.50645 | -85.14163 | 35239 ft | 520 kts | 181° |
| 2026-05-05 23:43 | 36.47109 | -85.13461 | 35456 ft | 520 kts | 181° |
| 2026-05-05 23:43 | 36.43537 | -85.12752 | 35691 ft | 520 kts | 181° |
| 2026-05-05 23:43 | 36.39966 | -85.12044 | 35909 ft | 520 kts | 181° |
| 2026-05-05 23:44 | 36.36384 | -85.11334 | 36083 ft | 522 kts | 181° |
| 2026-05-05 23:44 | 36.32786 | -85.10616 | 36269 ft | 524 kts | 180° |
| 2026-05-05 23:44 | 36.29197 | -85.09628 | 36447 ft | 532 kts | 175° |
| 2026-05-05 23:44 | 36.25622 | -85.08366 | 36734 ft | 534 kts | 173° |
| 2026-05-05 23:45 | 36.22068 | -85.06963 | 36884 ft | 537 kts | 171° |
| 2026-05-05 23:45 | 36.18505 | -85.05517 | 36917 ft | 541 kts | 172° |
| 2026-05-05 23:45 | 36.11329 | -85.02672 | 36962 ft | 546 kts | 172° |
| 2026-05-05 23:46 | 36.04070 | -84.99841 | 36960 ft | 547 kts | 172° |
| 2026-05-05 23:46 | 35.96800 | -84.97020 | 36957 ft | 547 kts | 172° |
| 2026-05-05 23:47 | 35.89554 | -84.94197 | 36963 ft | 544 kts | 172° |
| 2026-05-05 23:47 | 35.82372 | -84.91434 | 36961 ft | 541 kts | 171° |
| 2026-05-05 23:48 | 35.75205 | -84.88650 | 36966 ft | 541 kts | 171° |
| 2026-05-05 23:48 | 35.67953 | -84.85860 | 36965 ft | 550 kts | 172° |
| 2026-05-05 23:49 | 35.60633 | -84.83051 | 36958 ft | 551 kts | 172° |
| 2026-05-05 23:49 | 35.53310 | -84.80245 | 36961 ft | 551 kts | 172° |
| 2026-05-05 23:50 | 35.46000 | -84.77449 | 36962 ft | 550 kts | 172° |
| 2026-05-05 23:50 | 35.38673 | -84.74652 | 36964 ft | 551 kts | 172° |
| 2026-05-05 23:51 | 35.31405 | -84.71883 | 36965 ft | 546 kts | 172° |
| 2026-05-05 23:51 | 35.24225 | -84.69152 | 36964 ft | 538 kts | 172° |
| 2026-05-05 23:52 | 35.17057 | -84.66431 | 36964 ft | 543 kts | 171° |
| 2026-05-05 23:52 | 35.09792 | -84.63677 | 36965 ft | 548 kts | 171° |
| 2026-05-05 23:53 | 35.02504 | -84.60921 | 36964 ft | 548 kts | 171° |
| 2026-05-05 23:53 | 34.95257 | -84.58185 | 36968 ft | 549 kts | 171° |
| 2026-05-05 23:54 | 34.87945 | -84.55430 | 36968 ft | 550 kts | 171° |
| 2026-05-05 23:54 | 34.80620 | -84.52675 | 36966 ft | 550 kts | 171° |
| 2026-05-05 23:55 | 34.73318 | -84.49933 | 36977 ft | 549 kts | 171° |
| 2026-05-05 23:55 | 34.66016 | -84.47198 | 36970 ft | 548 kts | 171° |
| 2026-05-05 23:56 | 34.58750 | -84.44479 | 36984 ft | 546 kts | 171° |
| 2026-05-05 23:56 | 34.51481 | -84.41765 | 36984 ft | 546 kts | 171° |
| 2026-05-05 23:57 | 34.44213 | -84.39044 | 36983 ft | 547 kts | 171° |
| 2026-05-05 23:57 | 34.36923 | -84.36335 | 37033 ft | 548 kts | 171° |
| 2026-05-05 23:58 | 34.29666 | -84.33644 | 37024 ft | 549 kts | 171° |
| 2026-05-05 23:58 | 34.22344 | -84.31035 | 37006 ft | 543 kts | 178° |
| 2026-05-05 23:59 | 34.14932 | -84.30325 | 37018 ft | 532 kts | 188° |
| 2026-05-05 23:59 | 34.07553 | -84.30524 | 37018 ft | 526 kts | 192° |
| 2026-05-06 00:00 | 34.00259 | -84.30876 | 36997 ft | 523 kts | 192° |
| 2026-05-06 00:00 | 33.93010 | -84.31175 | 36993 ft | 521 kts | 192° |
| 2026-05-06 00:01 | 33.85741 | -84.31456 | 36994 ft | 523 kts | 192° |
| 2026-05-06 00:01 | 33.78484 | -84.31731 | 36994 ft | 525 kts | 192° |
| 2026-05-06 00:02 | 33.71173 | -84.32006 | 36992 ft | 525 kts | 192° |
| 2026-05-06 00:02 | 33.63858 | -84.32279 | 37000 ft | 527 kts | 191° |
| 2026-05-06 00:03 | 33.56500 | -84.32551 | 36995 ft | 529 kts | 192° |
| 2026-05-06 00:03 | 33.49173 | -84.32823 | 36994 ft | 529 kts | 192° |
| 2026-05-06 00:04 | 33.41807 | -84.33096 | 36994 ft | 529 kts | 192° |
| 2026-05-06 00:04 | 33.34443 | -84.33368 | 36997 ft | 529 kts | 192° |
| 2026-05-06 00:05 | 33.23458 | -84.33773 | 36994 ft | 527 kts | 192° |
| 2026-05-06 00:06 | 33.16089 | -84.34043 | 36995 ft | 533 kts | 192° |
| 2026-05-06 00:06 | 33.08659 | -84.34317 | 36994 ft | 534 kts | 192° |
| 2026-05-06 00:07 | 33.01228 | -84.34590 | 36994 ft | 533 kts | 192° |
| 2026-05-06 00:07 | 32.93804 | -84.34862 | 36994 ft | 533 kts | 192° |
| 2026-05-06 00:08 | 32.86391 | -84.35133 | 36994 ft | 533 kts | 192° |
| 2026-05-06 00:08 | 32.79002 | -84.35402 | 36994 ft | 534 kts | 192° |
| 2026-05-06 00:09 | 32.71557 | -84.35673 | 36994 ft | 535 kts | 192° |
| 2026-05-06 00:09 | 32.64128 | -84.35944 | 36994 ft | 532 kts | 192° |
| 2026-05-06 00:10 | 32.56727 | -84.36213 | 36993 ft | 531 kts | 192° |
| 2026-05-06 00:10 | 32.49331 | -84.36481 | 36994 ft | 532 kts | 192° |
| 2026-05-06 00:11 | 32.41906 | -84.36749 | 36994 ft | 534 kts | 192° |
| 2026-05-06 00:11 | 32.34469 | -84.37018 | 36994 ft | 534 kts | 192° |
| 2026-05-06 00:12 | 32.27079 | -84.37285 | 36994 ft | 534 kts | 192° |
| 2026-05-06 00:12 | 32.19652 | -84.37553 | 36994 ft | 534 kts | 192° |
| 2026-05-06 00:13 | 32.12209 | -84.37820 | 36993 ft | 536 kts | 192° |
| 2026-05-06 00:13 | 32.04739 | -84.38088 | 36993 ft | 536 kts | 192° |
| 2026-05-06 00:14 | 31.97298 | -84.38354 | 36994 ft | 533 kts | 192° |
| 2026-05-06 00:14 | 31.89879 | -84.38621 | 36994 ft | 532 kts | 192° |
| 2026-05-06 00:15 | 31.82517 | -84.38884 | 36994 ft | 533 kts | 192° |
| 2026-05-06 00:15 | 31.75090 | -84.39148 | 36994 ft | 533 kts | 192° |
| 2026-05-06 00:16 | 31.68918 | -84.39368 | 36994 ft | 533 kts | 191° |
| 2026-05-06 00:16 | 31.61443 | -84.38762 | 36991 ft | 545 kts | 179° |
| 2026-05-06 00:17 | 31.53949 | -84.36933 | 36997 ft | 554 kts | 175° |
| 2026-05-06 00:17 | 31.46412 | -84.34918 | 36995 ft | 557 kts | 175° |
| 2026-05-06 00:18 | 31.38876 | -84.32990 | 36990 ft | 552 kts | 175° |
| 2026-05-06 00:18 | 31.31358 | -84.31092 | 36995 ft | 553 kts | 175° |
| 2026-05-06 00:19 | 31.23827 | -84.29186 | 36994 ft | 553 kts | 176° |
| 2026-05-06 00:19 | 31.16313 | -84.27295 | 36994 ft | 551 kts | 175° |
| 2026-05-06 00:20 | 31.08811 | -84.25404 | 36994 ft | 551 kts | 175° |
| 2026-05-06 00:20 | 31.01309 | -84.23526 | 36988 ft | 553 kts | 175° |
| 2026-05-06 00:21 | 30.93725 | -84.21631 | 36994 ft | 559 kts | 175° |
| 2026-05-06 00:21 | 30.86117 | -84.19733 | 36994 ft | 559 kts | 175° |
| 2026-05-06 00:22 | 30.78559 | -84.17850 | 36994 ft | 558 kts | 175° |
| 2026-05-06 00:22 | 30.70913 | -84.15949 | 36996 ft | 558 kts | 175° |
| 2026-05-06 00:23 | 30.63404 | -84.14073 | 36993 ft | 553 kts | 175° |
| 2026-05-06 00:23 | 30.55882 | -84.12206 | 36994 ft | 552 kts | 175° |
| 2026-05-06 00:24 | 30.48346 | -84.10340 | 36994 ft | 554 kts | 175° |
| 2026-05-06 00:24 | 30.40793 | -84.08468 | 36993 ft | 555 kts | 174° |
| 2026-05-06 00:25 | 30.33529 | -84.05165 | 36986 ft | 566 kts | 159° |
| 2026-05-06 00:25 | 30.26628 | -84.00668 | 36999 ft | 572 kts | 154° |
| 2026-05-06 00:26 | 30.19774 | -83.95999 | 36997 ft | 574 kts | 154° |
| 2026-05-06 00:26 | 30.12856 | -83.91403 | 36993 ft | 572 kts | 154° |
| 2026-05-06 00:27 | 30.05958 | -83.86813 | 36994 ft | 569 kts | 154° |
| 2026-05-06 00:27 | 29.99140 | -83.82303 | 36994 ft | 568 kts | 154° |
| 2026-05-06 00:28 | 29.92255 | -83.77773 | 36994 ft | 569 kts | 154° |
| 2026-05-06 00:28 | 29.85374 | -83.73252 | 36994 ft | 569 kts | 154° |
| 2026-05-06 00:29 | 29.78466 | -83.68721 | 36994 ft | 573 kts | 154° |
| 2026-05-06 00:29 | 29.71514 | -83.64172 | 36994 ft | 574 kts | 154° |
| 2026-05-06 00:30 | 29.64633 | -83.59675 | 36993 ft | 570 kts | 154° |
| 2026-05-06 00:30 | 29.57720 | -83.55164 | 36994 ft | 570 kts | 154° |
| 2026-05-06 00:31 | 29.51795 | -83.51286 | 36993 ft | 570 kts | 154° |
| 2026-05-06 00:31 | 29.44923 | -83.46784 | 36994 ft | 569 kts | 154° |
| 2026-05-06 00:32 | 29.38019 | -83.42297 | 36994 ft | 569 kts | 155° |
| 2026-05-06 00:32 | 29.31132 | -83.37829 | 36994 ft | 569 kts | 155° |
| 2026-05-06 00:33 | 29.24198 | -83.33504 | 37000 ft | 564 kts | 155° |
| 2026-05-06 00:33 | 29.17081 | -83.29793 | 36995 ft | 561 kts | 160° |
| 2026-05-06 00:34 | 29.09942 | -83.26266 | 36994 ft | 562 kts | 161° |
| 2026-05-06 00:34 | 29.02774 | -83.22673 | 36993 ft | 563 kts | 161° |
| 2026-05-06 00:35 | 28.95576 | -83.19048 | 36995 ft | 567 kts | 161° |
| 2026-05-06 00:35 | 28.88351 | -83.15388 | 36963 ft | 566 kts | 161° |
| 2026-05-06 00:36 | 28.81168 | -83.11759 | 36963 ft | 564 kts | 161° |
| 2026-05-06 00:36 | 28.73981 | -83.08140 | 36969 ft | 564 kts | 161° |
| 2026-05-06 00:37 | 28.66845 | -83.04553 | 36963 ft | 561 kts | 160° |
| 2026-05-06 00:37 | 28.59709 | -83.00972 | 36975 ft | 560 kts | 161° |
| 2026-05-06 00:38 | 28.52553 | -82.97386 | 36977 ft | 561 kts | 160° |
| 2026-05-06 00:38 | 28.45404 | -82.93809 | 36988 ft | 562 kts | 161° |
| 2026-05-06 00:39 | 28.38238 | -82.90228 | 36991 ft | 562 kts | 161° |
| 2026-05-06 00:39 | 28.31112 | -82.86673 | 36990 ft | 563 kts | 161° |
| 2026-05-06 00:40 | 28.23950 | -82.83092 | 36992 ft | 561 kts | 161° |
| 2026-05-06 00:40 | 28.16814 | -82.79546 | 36991 ft | 557 kts | 160° |
| 2026-05-06 00:41 | 28.09705 | -82.76019 | 36993 ft | 557 kts | 160° |
| 2026-05-06 00:41 | 28.02572 | -82.72558 | 36991 ft | 557 kts | 165° |
| 2026-05-06 00:42 | 27.95066 | -82.70390 | 36995 ft | 556 kts | 174° |
| 2026-05-06 00:42 | 27.87500 | -82.68998 | 36993 ft | 553 kts | 176° |
| 2026-05-06 00:43 | 27.79912 | -82.67551 | 36994 ft | 552 kts | 176° |
| 2026-05-06 00:43 | 27.72333 | -82.66064 | 36993 ft | 553 kts | 176° |
| 2026-05-06 00:44 | 27.64750 | -82.64575 | 36996 ft | 552 kts | 176° |
| 2026-05-06 00:44 | 27.57193 | -82.63092 | 36993 ft | 550 kts | 176° |
| 2026-05-06 00:45 | 27.49716 | -82.61400 | 36994 ft | 553 kts | 171° |
| 2026-05-06 00:45 | 27.42262 | -82.59156 | 36994 ft | 555 kts | 170° |
| 2026-05-06 00:46 | 27.34770 | -82.56918 | 36996 ft | 557 kts | 170° |
| 2026-05-06 00:46 | 27.27275 | -82.54715 | 36994 ft | 557 kts | 170° |
| 2026-05-06 00:47 | 27.19846 | -82.52530 | 36790 ft | 545 kts | 170° |
| 2026-05-06 00:47 | 27.16181 | -82.51453 | 36391 ft | 542 kts | 170° |
| 2026-05-06 00:47 | 27.12540 | -82.50387 | 36117 ft | 538 kts | 170° |
| 2026-05-06 00:47 | 27.08927 | -82.49334 | 35882 ft | 532 kts | 170° |
| 2026-05-06 00:48 | 27.05401 | -82.48304 | 35509 ft | 530 kts | 170° |
| 2026-05-06 00:48 | 27.01835 | -82.47265 | 35208 ft | 527 kts | 170° |
| 2026-05-06 00:48 | 26.98293 | -82.46233 | 34893 ft | 524 kts | 170° |
| 2026-05-06 00:48 | 26.94790 | -82.45146 | 34553 ft | 525 kts | 164° |
| 2026-05-06 00:49 | 26.91513 | -82.43333 | 34352 ft | 524 kts | 152° |
| 2026-05-06 00:49 | 26.88485 | -82.41117 | 34163 ft | 517 kts | 148° |
| 2026-05-06 00:49 | 26.85605 | -82.38714 | 33576 ft | 518 kts | 143° |
| 2026-05-06 00:49 | 26.82827 | -82.36121 | 32927 ft | 518 kts | 141° |
| 2026-05-06 00:50 | 26.80141 | -82.33474 | 32617 ft | 510 kts | 140° |
| 2026-05-06 00:50 | 26.77476 | -82.30855 | 32028 ft | 509 kts | 140° |
| 2026-05-06 00:50 | 26.74825 | -82.28260 | 31607 ft | 504 kts | 140° |
| 2026-05-06 00:50 | 26.72176 | -82.25704 | 31113 ft | 501 kts | 140° |
| 2026-05-06 00:51 | 26.69539 | -82.23178 | 30600 ft | 498 kts | 141° |
| 2026-05-06 00:51 | 26.66908 | -82.20664 | 30115 ft | 495 kts | 141° |
| 2026-05-06 00:51 | 26.64299 | -82.18175 | 29627 ft | 492 kts | 141° |
| 2026-05-06 00:51 | 26.61707 | -82.15703 | 29157 ft | 489 kts | 141° |
| 2026-05-06 00:52 | 26.59130 | -82.13247 | 28696 ft | 485 kts | 141° |
| 2026-05-06 00:52 | 26.56568 | -82.10807 | 28215 ft | 482 kts | 141° |
| 2026-05-06 00:52 | 26.54053 | -82.08412 | 27747 ft | 479 kts | 141° |
| 2026-05-06 00:52 | 26.51541 | -82.05979 | 27272 ft | 476 kts | 140° |
| 2026-05-06 00:53 | 26.49094 | -82.03511 | 26805 ft | 473 kts | 139° |
| 2026-05-06 00:53 | 26.46664 | -82.01034 | 26335 ft | 470 kts | 139° |
| 2026-05-06 00:53 | 26.44262 | -81.98592 | 25870 ft | 467 kts | 139° |
| 2026-05-06 00:53 | 26.41861 | -81.96167 | 25404 ft | 463 kts | 139° |
| 2026-05-06 00:54 | 26.39473 | -81.93766 | 24935 ft | 460 kts | 139° |
| 2026-05-06 00:54 | 26.37102 | -81.91385 | 24480 ft | 457 kts | 139° |
| 2026-05-06 00:54 | 26.34744 | -81.89019 | 24012 ft | 454 kts | 139° |
| 2026-05-06 00:54 | 26.32406 | -81.86675 | 23561 ft | 450 kts | 139° |
| 2026-05-06 00:55 | 26.30089 | -81.84352 | 23099 ft | 447 kts | 139° |
| 2026-05-06 00:55 | 26.27785 | -81.82044 | 22651 ft | 444 kts | 139° |
| 2026-05-06 00:55 | 26.25510 | -81.79730 | 22174 ft | 441 kts | 135° |
| 2026-05-06 00:55 | 26.23622 | -81.77069 | 21806 ft | 433 kts | 124° |
| 2026-05-06 00:56 | 26.22061 | -81.74220 | 21324 ft | 431 kts | 118° |
| 2026-05-06 00:56 | 26.20675 | -81.71263 | 20845 ft | 427 kts | 115° |
| 2026-05-06 00:56 | 26.19435 | -81.68325 | 20436 ft | 423 kts | 113° |
| 2026-05-06 00:56 | 26.18210 | -81.65361 | 19977 ft | 420 kts | 114° |
| 2026-05-06 00:57 | 26.16964 | -81.62428 | 19566 ft | 416 kts | 114° |
| 2026-05-06 00:57 | 26.15715 | -81.59537 | 19097 ft | 413 kts | 114° |
| 2026-05-06 00:57 | 26.14468 | -81.56671 | 18644 ft | 410 kts | 115° |
| 2026-05-06 00:57 | 26.13225 | -81.53823 | 18219 ft | 406 kts | 115° |
| 2026-05-06 00:58 | 26.11990 | -81.51000 | 17751 ft | 404 kts | 115° |
| 2026-05-06 00:58 | 26.10767 | -81.48205 | 17296 ft | 401 kts | 115° |
| 2026-05-06 00:58 | 26.09546 | -81.45413 | 16844 ft | 398 kts | 115° |
| 2026-05-06 00:58 | 26.08345 | -81.42671 | 16387 ft | 390 kts | 115° |
| 2026-05-06 00:59 | 26.07173 | -81.39991 | 15939 ft | 381 kts | 114° |
| 2026-05-06 00:59 | 26.06038 | -81.37364 | 15506 ft | 372 kts | 114° |
| 2026-05-06 00:59 | 26.04943 | -81.34838 | 15089 ft | 363 kts | 114° |
| 2026-05-06 00:59 | 26.03848 | -81.32323 | 14678 ft | 360 kts | 114° |
| 2026-05-06 01:00 | 26.02762 | -81.29835 | 14265 ft | 357 kts | 114° |
| 2026-05-06 01:00 | 26.01682 | -81.27365 | 13848 ft | 354 kts | 114° |
| 2026-05-06 01:00 | 26.00608 | -81.24910 | 13441 ft | 351 kts | 114° |
| 2026-05-06 01:00 | 25.99555 | -81.22503 | 13040 ft | 348 kts | 115° |
| 2026-05-06 01:01 | 25.98488 | -81.20066 | 12626 ft | 345 kts | 115° |
| 2026-05-06 01:01 | 25.97792 | -81.18478 | 12358 ft | 343 kts | 115° |
| 2026-05-06 01:01 | 25.96751 | -81.16102 | 11951 ft | 341 kts | 115° |
| 2026-05-06 01:01 | 25.95383 | -81.12979 | 11403 ft | 338 kts | 115° |
| 2026-05-06 01:02 | 25.94362 | -81.10644 | 10997 ft | 335 kts | 115° |
| 2026-05-06 01:02 | 25.93346 | -81.08326 | 10615 ft | 332 kts | 114° |
| 2026-05-06 01:02 | 25.92667 | -81.06779 | 10505 ft | 325 kts | 114° |
| 2026-05-06 01:02 | 25.91696 | -81.04564 | 10353 ft | 314 kts | 115° |
| 2026-05-06 01:03 | 25.90804 | -81.02430 | 10216 ft | 303 kts | 113° |
| 2026-05-06 01:03 | 25.89985 | -81.00309 | 10079 ft | 297 kts | 112° |
| 2026-05-06 01:03 | 25.89192 | -80.98171 | 9848 ft | 301 kts | 111° |
| 2026-05-06 01:03 | 25.88377 | -80.96032 | 9479 ft | 300 kts | 111° |
| 2026-05-06 01:04 | 25.87561 | -80.93904 | 9107 ft | 298 kts | 112° |
| 2026-05-06 01:04 | 25.86751 | -80.91789 | 8794 ft | 295 kts | 112° |
| 2026-05-06 01:04 | 25.85953 | -80.89710 | 8537 ft | 291 kts | 112° |
| 2026-05-06 01:04 | 25.85163 | -80.87656 | 8284 ft | 288 kts | 112° |
| 2026-05-06 01:05 | 25.84378 | -80.85616 | 8032 ft | 287 kts | 112° |
| 2026-05-06 01:05 | 25.83594 | -80.83577 | 7759 ft | 286 kts | 112° |
| 2026-05-06 01:05 | 25.82827 | -80.81582 | 7497 ft | 284 kts | 112° |
| 2026-05-06 01:05 | 25.82054 | -80.79576 | 7230 ft | 282 kts | 112° |
| 2026-05-06 01:06 | 25.81275 | -80.77553 | 6959 ft | 281 kts | 113° |
| 2026-05-06 01:06 | 25.80521 | -80.75593 | 6694 ft | 279 kts | 113° |
| 2026-05-06 01:06 | 25.79750 | -80.73596 | 6427 ft | 276 kts | 113° |
| 2026-05-06 01:06 | 25.79001 | -80.71633 | 6167 ft | 275 kts | 110° |
| 2026-05-06 01:07 | 25.78559 | -80.69614 | 5907 ft | 273 kts | 99° |
| 2026-05-06 01:07 | 25.78390 | -80.67529 | 5643 ft | 270 kts | 92° |
| 2026-05-06 01:07 | 25.78401 | -80.65451 | 5388 ft | 268 kts | 88° |
| 2026-05-06 01:07 | 25.78509 | -80.63381 | 5140 ft | 268 kts | 85° |
| 2026-05-06 01:08 | 25.78672 | -80.61318 | 5011 ft | 267 kts | 85° |
| 2026-05-06 01:08 | 25.78799 | -80.59261 | 4996 ft | 266 kts | 86° |
| 2026-05-06 01:08 | 25.78916 | -80.57221 | 4754 ft | 272 kts | 86° |
| 2026-05-06 01:08 | 25.79025 | -80.55130 | 4353 ft | 266 kts | 86° |
| 2026-05-06 01:09 | 25.79117 | -80.53115 | 3992 ft | 256 kts | 86° |
| 2026-05-06 01:09 | 25.79200 | -80.51185 | 3659 ft | 244 kts | 86° |
| 2026-05-06 01:09 | 25.79275 | -80.49375 | 3345 ft | 225 kts | 85° |
| 2026-05-06 01:09 | 25.79344 | -80.47724 | 3036 ft | 203 kts | 85° |
| 2026-05-06 01:10 | 25.79406 | -80.46236 | 2802 ft | 187 kts | 85° |
| 2026-05-06 01:10 | 25.79463 | -80.44847 | 2593 ft | 176 kts | 85° |
| 2026-05-06 01:10 | 25.79517 | -80.43535 | 2367 ft | 170 kts | 85° |
| 2026-05-06 01:10 | 25.79572 | -80.42223 | 2141 ft | 169 kts | 85° |
| 2026-05-06 01:11 | 25.79620 | -80.40940 | 1968 ft | 164 kts | 86° |
| 2026-05-06 01:11 | 25.79655 | -80.39671 | 1685 ft | 165 kts | 87° |
| 2026-05-06 01:11 | 25.79699 | -80.38421 | 1437 ft | 159 kts | 87° |
| 2026-05-06 01:11 | 25.79747 | -80.37198 | 1220 ft | 158 kts | 86° |
| 2026-05-06 01:12 | 25.79807 | -80.35976 | 1030 ft | 160 kts | 85° |
| 2026-05-06 01:12 | 25.79886 | -80.34751 | 838 ft | 159 kts | 85° |
| 2026-05-06 01:12 | 25.79930 | -80.33529 | 618 ft | 158 kts | 87° |
| 2026-05-06 01:12 | 25.79955 | -80.32312 | 404 ft | 159 kts | 87° |
| 2026-05-06 01:13 | 25.80025 | -80.31094 | 240 ft | 156 kts | 85° |
| 2026-05-06 01:13 | 25.80080 | -80.29911 | 38 ft | 150 kts | 86° |
| 2026-05-06 01:13 | 25.80123 | -80.28853 | 22 ft | 126 kts | 86° |
| 2026-05-06 01:13 | 25.80155 | -80.28119 | 22 ft | 67 kts | 86° |
| 2026-05-06 01:14 | 25.80209 | -80.27625 | 21 ft | 11 kts | 2° |
| 2026-05-06 01:14 | 25.80283 | -80.27635 | 21 ft | 10 kts | 356° |
| 2026-05-06 01:14 | 25.80367 | -80.27641 | 21 ft | 16 kts | 357° |
| 2026-05-06 01:15 | 25.80488 | -80.27668 | 21 ft | 19 kts | 298° |
| 2026-05-06 01:15 | 25.80495 | -80.27834 | 21 ft | 25 kts | 267° |
| 2026-05-06 01:15 | 25.80488 | -80.28033 | 21 ft | 25 kts | 268° |
| 2026-05-06 01:15 | 25.80482 | -80.28213 | 21 ft | 23 kts | 267° |
| 2026-05-06 01:16 | 25.80474 | -80.28384 | 21 ft | 22 kts | 267° |
| 2026-05-06 01:16 | 25.80468 | -80.28547 | 21 ft | 21 kts | 268° |
| 2026-05-06 01:16 | 25.80460 | -80.28703 | 21 ft | 20 kts | 267° |
| 2026-05-06 01:16 | 25.80453 | -80.28852 | 21 ft | 19 kts | 266° |
| 2026-05-06 01:17 | 25.80446 | -80.28993 | 21 ft | 18 kts | 268° |
| 2026-05-06 01:17 | 25.80443 | -80.29126 | 21 ft | 17 kts | 268° |
| 2026-05-06 01:17 | 25.80436 | -80.29252 | 21 ft | 16 kts | 266° |
| 2026-05-06 01:17 | 25.80430 | -80.29369 | 21 ft | 15 kts | 266° |
| 2026-05-06 01:18 | 25.80424 | -80.29481 | 21 ft | 14 kts | 268° |
| 2026-05-06 01:18 | 25.80422 | -80.29585 | 21 ft | 13 kts | 268° |
| 2026-05-06 01:18 | 25.80417 | -80.29683 | 21 ft | 13 kts | 266° |
| 2026-05-06 01:18 | 25.80414 | -80.29778 | 21 ft | 12 kts | 268° |
| 2026-05-06 01:19 | 25.80411 | -80.29869 | 21 ft | 12 kts | 268° |
| 2026-05-06 01:19 | 25.80407 | -80.29956 | 21 ft | 11 kts | 266° |
| 2026-05-06 01:19 | 25.80402 | -80.30040 | 21 ft | 11 kts | 266° |
| 2026-05-06 01:19 | 25.80397 | -80.30119 | 21 ft | 10 kts | 266° |